createdAt,value
2022-12-27T00:00:06.538Z,5.00
2022-12-27T00:00:36.142Z,5.00
2022-12-27T00:01:08.831Z,5.00
2022-12-27T00:01:40.135Z,5.00
2022-12-27T00:02:13.189Z,5.00
2022-12-27T00:02:44.176Z,5.00
2022-12-27T00:03:17.018Z,5.00
2022-12-27T00:03:48.172Z,5.00
2022-12-27T00:04:21.123Z,5.00
2022-12-27T00:04:52.040Z,4.88
2022-12-27T00:05:25.535Z,4.88
2022-12-27T00:05:56.228Z,4.88
2022-12-27T00:06:28.517Z,4.88
2022-12-27T00:07:00.203Z,4.88
2022-12-27T00:07:33.297Z,4.88
2022-12-27T00:08:04.269Z,4.88
2022-12-27T00:08:38.314Z,4.88
2022-12-27T00:09:08.118Z,4.88
2022-12-27T00:09:41.159Z,4.88
2022-12-27T00:10:12.532Z,4.88
2022-12-27T00:10:45.046Z,4.88
2022-12-27T00:11:16.200Z,4.88
2022-12-27T00:11:48.943Z,4.88
2022-12-27T00:12:20.153Z,4.77
2022-12-27T00:12:52.899Z,4.77
2022-12-27T00:13:24.195Z,4.88
2022-12-27T00:13:56.934Z,4.88
2022-12-27T00:14:28.077Z,4.77
2022-12-27T00:15:02.338Z,4.77
2022-12-27T00:15:32.195Z,4.77
2022-12-27T00:16:05.237Z,4.77
2022-12-27T00:16:36.171Z,4.77
2022-12-27T00:17:08.965Z,4.77
2022-12-27T00:17:40.082Z,4.77
2022-12-27T00:18:12.919Z,4.77
2022-12-27T00:18:44.230Z,4.72
2022-12-27T00:19:16.708Z,4.72
2022-12-27T00:19:48.126Z,4.72
2022-12-27T00:20:21.334Z,4.72
2022-12-27T00:20:52.146Z,4.72
2022-12-27T00:21:24.875Z,4.72
2022-12-27T00:21:56.186Z,4.72
2022-12-27T00:22:29.273Z,4.72
2022-12-27T00:23:00.119Z,4.72
2022-12-27T00:23:32.966Z,4.72
2022-12-27T00:24:04.302Z,4.61
2022-12-27T00:24:37.207Z,4.61
2022-12-27T00:25:08.377Z,4.61
2022-12-27T00:25:41.105Z,4.61
2022-12-27T00:26:11.999Z,4.50
2022-12-27T00:26:44.954Z,4.50
2022-12-27T00:27:16.224Z,4.50
2022-12-27T00:27:49.247Z,4.50
2022-12-27T00:28:20.034Z,4.50
2022-12-27T00:28:52.905Z,4.50
2022-12-27T00:29:24.253Z,4.38
2022-12-27T00:29:56.975Z,4.38
2022-12-27T00:30:29.362Z,4.38
2022-12-27T00:31:00.950Z,4.38
2022-12-27T00:31:32.279Z,4.38
2022-12-27T00:32:05.033Z,4.38
2022-12-27T00:32:36.115Z,4.38
2022-12-27T00:33:09.190Z,4.38
2022-12-27T00:33:40.312Z,4.38
2022-12-27T00:34:12.886Z,4.38
2022-12-27T00:34:44.113Z,4.38
2022-12-27T00:35:17.468Z,4.38
2022-12-27T00:35:48.254Z,4.27
2022-12-27T00:36:20.986Z,4.27
2022-12-27T00:36:52.247Z,4.27
2022-12-27T00:37:25.097Z,4.27
2022-12-27T00:37:56.309Z,4.27
2022-12-27T00:38:29.142Z,4.27
2022-12-27T00:39:00.384Z,4.27
2022-12-27T00:39:33.193Z,4.27
2022-12-27T00:40:04.499Z,4.27
2022-12-27T00:40:37.495Z,4.27
2022-12-27T00:41:08.208Z,4.22
2022-12-27T00:41:41.195Z,4.22
2022-12-27T00:42:12.282Z,4.22
2022-12-27T00:42:44.982Z,4.22
2022-12-27T00:43:16.139Z,4.22
2022-12-27T00:43:49.229Z,4.22
2022-12-27T00:44:20.280Z,4.22
2022-12-27T00:44:52.970Z,4.22
2022-12-27T00:45:25.516Z,4.22
2022-12-27T00:45:57.306Z,4.22
2022-12-27T00:46:28.132Z,4.11
2022-12-27T00:47:00.904Z,4.11
2022-12-27T00:47:32.258Z,4.11
2022-12-27T00:48:05.238Z,4.11
2022-12-27T00:48:36.112Z,4.11
2022-12-27T00:49:09.088Z,4.11
2022-12-27T00:49:40.229Z,4.11
2022-12-27T00:50:13.248Z,4.11
2022-12-27T00:50:44.097Z,4.11
2022-12-27T00:51:17.097Z,4.11
2022-12-27T00:51:48.319Z,4.00
2022-12-27T00:52:20.931Z,4.00
2022-12-27T00:52:52.150Z,4.00
2022-12-27T00:53:25.059Z,4.00
2022-12-27T00:53:56.182Z,3.88
2022-12-27T00:54:28.963Z,3.88
2022-12-27T00:55:00.182Z,3.88
2022-12-27T00:55:33.578Z,3.88
2022-12-27T00:56:04.161Z,3.88
2022-12-27T00:56:37.204Z,3.88
2022-12-27T00:57:08.176Z,3.88
2022-12-27T00:57:41.014Z,3.88
2022-12-27T00:58:12.114Z,3.77
2022-12-27T00:58:45.124Z,3.77
2022-12-27T00:59:16.065Z,3.77
2022-12-27T00:59:48.972Z,3.77
2022-12-27T01:00:21.407Z,3.77
2022-12-27T01:00:53.123Z,3.77
2022-12-27T01:01:24.306Z,3.72
2022-12-27T01:01:57.158Z,3.72
2022-12-27T01:02:28.179Z,3.72
2022-12-27T01:03:01.113Z,3.72
2022-12-27T01:03:32.135Z,3.72
2022-12-27T01:04:05.108Z,3.72
2022-12-27T01:04:36.281Z,3.61
2022-12-27T01:05:09.195Z,3.61
2022-12-27T01:05:39.949Z,3.61
2022-12-27T01:06:13.087Z,3.61
2022-12-27T01:06:44.219Z,3.50
2022-12-27T01:07:17.017Z,3.50
2022-12-27T01:07:48.302Z,3.50
2022-12-27T01:08:20.997Z,3.50
2022-12-27T01:08:52.190Z,3.50
2022-12-27T01:09:25.039Z,3.50
2022-12-27T01:09:56.264Z,3.50
2022-12-27T01:10:29.231Z,3.50
2022-12-27T01:11:00.189Z,3.38
2022-12-27T01:11:33.128Z,3.38
2022-12-27T01:12:04.255Z,3.38
2022-12-27T01:12:37.321Z,3.38
2022-12-27T01:13:08.324Z,3.38
2022-12-27T01:13:40.870Z,3.38
2022-12-27T01:14:12.183Z,3.27
2022-12-27T01:14:45.359Z,3.27
2022-12-27T01:15:17.090Z,3.27
2022-12-27T01:15:50.125Z,3.27
2022-12-27T01:16:20.313Z,3.27
2022-12-27T01:16:53.223Z,3.27
2022-12-27T01:17:24.102Z,3.22
2022-12-27T01:17:57.019Z,3.22
2022-12-27T01:18:28.208Z,3.22
2022-12-27T01:19:01.247Z,3.22
2022-12-27T01:19:32.035Z,3.22
2022-12-27T01:19:48.302Z,3.22
2022-12-27T01:20:20.473Z,3.22
2022-12-27T01:20:52.121Z,3.22
2022-12-27T01:21:24.277Z,3.22
2022-12-27T01:21:56.151Z,3.22
2022-12-27T01:22:29.021Z,3.11
2022-12-27T01:23:00.262Z,3.11
2022-12-27T01:23:32.898Z,3.11
2022-12-27T01:24:04.175Z,3.11
2022-12-27T01:24:37.177Z,3.11
2022-12-27T01:25:08.298Z,3.11
2022-12-27T01:25:41.082Z,3.11
2022-12-27T01:26:12.190Z,3.11
2022-12-27T01:26:45.083Z,3.11
2022-12-27T01:27:16.026Z,3.11
2022-12-27T01:27:49.177Z,3.11
2022-12-27T01:28:20.189Z,3.11
2022-12-27T01:28:52.903Z,3.00
2022-12-27T01:29:24.184Z,3.00
2022-12-27T01:29:57.143Z,3.00
2022-12-27T01:30:29.472Z,3.00
2022-12-27T01:31:01.065Z,3.11
2022-12-27T01:31:32.255Z,3.11
2022-12-27T01:32:05.194Z,3.11
2022-12-27T01:32:36.100Z,3.11
2022-12-27T01:33:09.015Z,3.11
2022-12-27T01:33:40.148Z,3.11
2022-12-27T01:34:13.070Z,3.11
2022-12-27T01:34:44.221Z,3.11
2022-12-27T01:35:17.427Z,3.11
2022-12-27T01:35:48.116Z,3.11
2022-12-27T01:36:21.002Z,3.00
2022-12-27T01:36:52.196Z,3.00
2022-12-27T01:37:25.200Z,3.00
2022-12-27T01:37:56.126Z,3.00
2022-12-27T01:38:28.892Z,3.00
2022-12-27T01:39:00.192Z,3.00
2022-12-27T01:39:33.035Z,3.00
2022-12-27T01:40:04.555Z,3.00
2022-12-27T01:40:20.338Z,3.00
2022-12-27T01:40:52.467Z,3.00
2022-12-27T01:41:24.132Z,3.00
2022-12-27T01:41:56.126Z,3.00
2022-12-27T01:42:28.019Z,3.00
2022-12-27T01:43:01.179Z,2.88
2022-12-27T01:43:32.228Z,2.88
2022-12-27T01:44:05.060Z,2.88
2022-12-27T01:44:36.064Z,2.88
2022-12-27T01:45:10.227Z,2.88
2022-12-27T01:45:40.346Z,2.88
2022-12-27T01:46:12.933Z,2.88
2022-12-27T01:46:44.272Z,2.88
2022-12-27T01:47:17.172Z,2.77
2022-12-27T01:47:48.317Z,2.77
2022-12-27T01:48:20.905Z,2.77
2022-12-27T01:48:52.165Z,2.77
2022-12-27T01:49:25.093Z,2.77
2022-12-27T01:49:56.050Z,2.77
2022-12-27T01:50:29.341Z,2.72
2022-12-27T01:51:00.277Z,2.72
2022-12-27T01:51:32.981Z,2.72
2022-12-27T01:52:04.144Z,2.72
2022-12-27T01:52:37.347Z,2.72
2022-12-27T01:53:08.162Z,2.72
2022-12-27T01:53:40.820Z,2.72
2022-12-27T01:54:12.203Z,2.72
2022-12-27T01:54:45.261Z,2.72
2022-12-27T01:55:16.333Z,2.72
2022-12-27T01:55:49.048Z,2.72
2022-12-27T01:56:20.162Z,2.72
2022-12-27T01:56:53.159Z,2.61
2022-12-27T01:57:24.537Z,2.61
2022-12-27T01:57:57.099Z,2.61
2022-12-27T01:58:28.227Z,2.61
2022-12-27T01:59:01.153Z,2.61
2022-12-27T01:59:32.190Z,2.61
2022-12-27T02:00:06.443Z,2.61
2022-12-27T02:00:36.288Z,2.61
2022-12-27T02:01:08.896Z,2.61
2022-12-27T02:01:40.366Z,2.61
2022-12-27T02:02:13.299Z,2.61
2022-12-27T02:02:44.298Z,2.61
2022-12-27T02:03:16.956Z,2.50
2022-12-27T02:03:48.246Z,2.50
2022-12-27T02:04:21.267Z,2.50
2022-12-27T02:04:52.086Z,2.50
2022-12-27T02:05:25.342Z,2.50
2022-12-27T02:05:56.146Z,2.50
2022-12-27T02:06:28.846Z,2.50
2022-12-27T02:07:00.154Z,2.50
2022-12-27T02:07:33.250Z,2.50
2022-12-27T02:08:04.295Z,2.50
2022-12-27T02:08:38.169Z,2.50
2022-12-27T02:09:08.156Z,2.50
2022-12-27T02:09:41.249Z,2.50
2022-12-27T02:10:12.420Z,2.50
2022-12-27T02:10:44.875Z,2.50
2022-12-27T02:11:16.225Z,2.50
2022-12-27T02:11:48.928Z,2.50
2022-12-27T02:12:20.202Z,2.50
2022-12-27T02:12:53.218Z,2.38
2022-12-27T02:13:24.252Z,2.38
2022-12-27T02:13:57.152Z,2.38
2022-12-27T02:14:28.556Z,2.38
2022-12-27T02:15:02.503Z,2.38
2022-12-27T02:15:32.237Z,2.38
2022-12-27T02:16:05.080Z,2.38
2022-12-27T02:16:36.454Z,2.38
2022-12-27T02:17:09.333Z,2.38
2022-12-27T02:17:40.208Z,2.38
2022-12-27T02:18:13.083Z,2.38
2022-12-27T02:18:44.284Z,2.38
2022-12-27T02:19:17.131Z,2.27
2022-12-27T02:19:48.220Z,2.27
2022-12-27T02:20:21.460Z,2.27
2022-12-27T02:20:52.056Z,2.27
2022-12-27T02:21:24.960Z,2.27
2022-12-27T02:21:56.214Z,2.27
2022-12-27T02:22:29.076Z,2.27
2022-12-27T02:23:00.177Z,2.27
2022-12-27T02:23:39.253Z,2.27
2022-12-27T02:24:04.341Z,2.27
2022-12-27T02:24:37.437Z,2.22
2022-12-27T02:25:08.330Z,2.22
2022-12-27T02:25:40.994Z,2.22
2022-12-27T02:26:12.234Z,2.22
2022-12-27T02:26:44.991Z,2.22
2022-12-27T02:27:16.208Z,2.22
2022-12-27T02:27:49.318Z,2.11
2022-12-27T02:28:20.134Z,2.11
2022-12-27T02:28:52.929Z,2.11
2022-12-27T02:29:24.245Z,2.11
2022-12-27T02:29:56.992Z,2.11
2022-12-27T02:30:29.486Z,2.11
2022-12-27T02:31:01.118Z,2.11
2022-12-27T02:31:32.289Z,2.11
2022-12-27T02:32:04.959Z,2.11
2022-12-27T02:32:36.110Z,2.11
2022-12-27T02:33:09.011Z,2.00
2022-12-27T02:33:40.236Z,2.00
2022-12-27T02:34:13.209Z,2.00
2022-12-27T02:34:44.327Z,2.00
2022-12-27T02:35:17.488Z,2.00
2022-12-27T02:35:48.176Z,2.00
2022-12-27T02:36:20.841Z,1.88
2022-12-27T02:36:52.245Z,1.88
2022-12-27T02:37:25.062Z,1.88
2022-12-27T02:37:56.196Z,1.88
2022-12-27T02:38:29.089Z,1.77
2022-12-27T02:39:00.284Z,1.77
2022-12-27T02:39:33.092Z,1.77
2022-12-27T02:40:04.654Z,1.77
2022-12-27T02:40:37.299Z,1.77
2022-12-27T02:41:08.161Z,1.77
2022-12-27T02:41:40.997Z,1.72
2022-12-27T02:42:12.192Z,1.72
2022-12-27T02:42:44.996Z,1.72
2022-12-27T02:43:16.174Z,1.72
2022-12-27T02:43:49.135Z,1.72
2022-12-27T02:44:20.249Z,1.72
2022-12-27T02:44:52.988Z,1.72
2022-12-27T02:45:25.369Z,1.72
2022-12-27T02:45:57.315Z,1.61
2022-12-27T02:46:28.244Z,1.61
2022-12-27T02:47:00.977Z,1.61
2022-12-27T02:47:32.226Z,1.61
2022-12-27T02:48:05.312Z,1.61
2022-12-27T02:48:36.126Z,1.61
2022-12-27T02:49:09.034Z,1.50
2022-12-27T02:49:40.285Z,1.50
2022-12-27T02:50:13.055Z,1.50
2022-12-27T02:50:44.260Z,1.50
2022-12-27T02:51:17.164Z,1.50
2022-12-27T02:51:48.294Z,1.50
2022-12-27T02:52:21.129Z,1.50
2022-12-27T02:52:52.291Z,1.50
2022-12-27T02:53:24.977Z,1.50
2022-12-27T02:53:56.148Z,1.50
2022-12-27T02:54:29.025Z,1.50
2022-12-27T02:55:00.622Z,1.50
2022-12-27T02:55:33.057Z,1.50
2022-12-27T02:56:04.327Z,1.50
2022-12-27T02:56:20.342Z,1.50
2022-12-27T02:56:52.173Z,1.50
2022-12-27T02:57:24.383Z,1.50
2022-12-27T02:57:56.264Z,1.50
2022-12-27T02:58:28.125Z,1.50
2022-12-27T02:59:01.036Z,1.50
2022-12-27T02:59:32.249Z,1.61
2022-12-27T03:00:06.551Z,1.61
2022-12-27T03:00:36.186Z,1.61
2022-12-27T03:01:09.028Z,1.61
2022-12-27T03:01:40.356Z,1.61
2022-12-27T03:02:13.348Z,1.61
2022-12-27T03:02:44.292Z,1.61
2022-12-27T03:03:17.172Z,1.61
2022-12-27T03:03:48.151Z,1.72
2022-12-27T03:04:21.010Z,1.72
2022-12-27T03:04:52.278Z,1.72
2022-12-27T03:05:25.183Z,1.72
2022-12-27T03:05:56.160Z,1.72
2022-12-27T03:06:28.905Z,1.72
2022-12-27T03:07:00.283Z,1.72
2022-12-27T03:07:33.144Z,1.72
2022-12-27T03:08:04.157Z,1.72
2022-12-27T03:08:38.065Z,1.72
2022-12-27T03:09:08.357Z,1.72
2022-12-27T03:09:40.973Z,1.72
2022-12-27T03:10:12.609Z,1.72
2022-12-27T03:10:45.297Z,1.72
2022-12-27T03:11:16.113Z,1.72
2022-12-27T03:11:49.106Z,1.72
2022-12-27T03:12:20.330Z,1.72
2022-12-27T03:12:52.991Z,1.72
2022-12-27T03:13:24.184Z,1.77
2022-12-27T03:13:57.006Z,1.77
2022-12-27T03:14:28.537Z,1.77
2022-12-27T03:15:02.547Z,1.77
2022-12-27T03:15:33.545Z,1.77
2022-12-27T03:16:05.359Z,1.77
2022-12-27T03:16:36.107Z,1.77
2022-12-27T03:17:09.036Z,1.77
2022-12-27T03:17:40.249Z,1.77
2022-12-27T03:18:13.036Z,1.77
2022-12-27T03:18:44.081Z,1.77
2022-12-27T03:19:17.005Z,1.77
2022-12-27T03:19:48.316Z,1.77
2022-12-27T03:20:21.369Z,1.77
2022-12-27T03:20:52.182Z,1.77
2022-12-27T03:21:25.041Z,1.77
2022-12-27T03:21:56.352Z,1.77
2022-12-27T03:22:29.093Z,1.77
2022-12-27T03:23:00.170Z,1.77
2022-12-27T03:23:33.228Z,1.77
2022-12-27T03:24:04.277Z,1.77
2022-12-27T03:24:37.065Z,1.77
2022-12-27T03:25:08.463Z,1.77
2022-12-27T03:25:41.071Z,1.77
2022-12-27T03:26:12.272Z,1.77
2022-12-27T03:26:45.268Z,1.77
2022-12-27T03:27:16.196Z,1.77
2022-12-27T03:27:49.393Z,1.77
2022-12-27T03:28:20.177Z,1.77
2022-12-27T03:28:53.093Z,1.77
2022-12-27T03:29:24.212Z,1.88
2022-12-27T03:29:56.847Z,1.88
2022-12-27T03:30:29.418Z,1.88
2022-12-27T03:31:01.247Z,1.88
2022-12-27T03:31:32.172Z,1.88
2022-12-27T03:32:04.868Z,1.88
2022-12-27T03:32:36.177Z,1.88
2022-12-27T03:33:08.942Z,1.88
2022-12-27T03:33:40.151Z,1.88
2022-12-27T03:34:12.860Z,1.88
2022-12-27T03:34:44.202Z,1.88
2022-12-27T03:35:17.151Z,1.88
2022-12-27T03:35:48.217Z,1.88
2022-12-27T03:36:21.086Z,1.88
2022-12-27T03:36:52.256Z,1.88
2022-12-27T03:37:24.977Z,1.88
2022-12-27T03:37:56.197Z,1.88
2022-12-27T03:38:29.010Z,1.88
2022-12-27T03:39:00.148Z,1.88
2022-12-27T03:39:32.837Z,1.88
2022-12-27T03:40:04.499Z,1.88
2022-12-27T03:40:37.308Z,1.88
2022-12-27T03:41:08.228Z,1.88
2022-12-27T03:41:41.015Z,1.88
2022-12-27T03:42:12.278Z,1.88
2022-12-27T03:42:44.920Z,1.88
2022-12-27T03:43:16.174Z,1.88
2022-12-27T03:43:49.025Z,1.88
2022-12-27T03:44:20.302Z,1.88
2022-12-27T03:44:52.821Z,1.88
2022-12-27T03:45:25.545Z,1.88
2022-12-27T03:45:57.259Z,1.88
2022-12-27T03:46:28.213Z,1.77
2022-12-27T03:47:00.912Z,1.77
2022-12-27T03:47:32.187Z,1.88
2022-12-27T03:48:05.135Z,1.88
2022-12-27T03:48:36.140Z,1.77
2022-12-27T03:49:08.952Z,1.77
2022-12-27T03:49:40.174Z,1.77
2022-12-27T03:50:13.242Z,1.77
2022-12-27T03:50:44.121Z,1.88
2022-12-27T03:51:17.047Z,1.88
2022-12-27T03:51:48.314Z,1.77
2022-12-27T03:52:20.984Z,1.77
2022-12-27T03:52:52.190Z,1.77
2022-12-27T03:53:25.078Z,1.77
2022-12-27T03:53:56.152Z,1.77
2022-12-27T03:54:28.848Z,1.77
2022-12-27T03:55:00.737Z,1.77
2022-12-27T03:55:33.472Z,1.77
2022-12-27T03:56:04.197Z,1.77
2022-12-27T03:56:37.074Z,1.77
2022-12-27T03:57:08.319Z,1.77
2022-12-27T03:57:40.946Z,1.77
2022-12-27T03:58:12.141Z,1.77
2022-12-27T03:58:44.917Z,1.77
2022-12-27T03:59:16.288Z,1.77
2022-12-27T03:59:48.929Z,1.77
2022-12-27T04:00:21.425Z,1.77
2022-12-27T04:00:53.187Z,1.77
2022-12-27T04:01:24.127Z,1.72
2022-12-27T04:01:57.071Z,1.72
2022-12-27T04:02:28.550Z,1.72
2022-12-27T04:03:01.256Z,1.72
2022-12-27T04:03:32.156Z,1.72
2022-12-27T04:04:05.040Z,1.72
2022-12-27T04:04:36.212Z,1.72
2022-12-27T04:05:09.147Z,1.72
2022-12-27T04:05:40.227Z,1.72
2022-12-27T04:06:13.665Z,1.72
2022-12-27T04:06:44.349Z,1.72
2022-12-27T04:07:16.893Z,1.72
2022-12-27T04:07:48.365Z,1.72
2022-12-27T04:08:21.091Z,1.72
2022-12-27T04:08:52.122Z,1.72
2022-12-27T04:09:24.938Z,1.72
2022-12-27T04:09:56.278Z,1.72
2022-12-27T04:10:29.440Z,1.72
2022-12-27T04:11:00.235Z,1.72
2022-12-27T04:11:33.060Z,1.72
2022-12-27T04:12:04.336Z,1.72
2022-12-27T04:12:37.263Z,1.72
2022-12-27T04:13:08.262Z,1.72
2022-12-27T04:13:40.977Z,1.72
2022-12-27T04:14:12.311Z,1.72
2022-12-27T04:14:44.869Z,1.72
2022-12-27T04:15:17.219Z,1.72
2022-12-27T04:15:49.245Z,1.72
2022-12-27T04:16:20.279Z,1.72
2022-12-27T04:16:52.948Z,1.72
2022-12-27T04:17:24.204Z,1.72
2022-12-27T04:17:56.879Z,1.72
2022-12-27T04:18:28.289Z,1.72
2022-12-27T04:19:01.070Z,1.72
2022-12-27T04:19:32.216Z,1.72
2022-12-27T04:20:05.311Z,1.72
2022-12-27T04:20:36.256Z,1.72
2022-12-27T04:21:09.047Z,1.72
2022-12-27T04:21:40.049Z,1.61
2022-12-27T04:22:12.974Z,1.61
2022-12-27T04:22:44.202Z,1.61
2022-12-27T04:23:17.121Z,1.61
2022-12-27T04:23:48.289Z,1.61
2022-12-27T04:24:20.862Z,1.61
2022-12-27T04:24:52.330Z,1.72
2022-12-27T04:25:25.281Z,1.72
2022-12-27T04:25:56.194Z,1.61
2022-12-27T04:26:29.246Z,1.61
2022-12-27T04:27:00.320Z,1.61
2022-12-27T04:27:33.155Z,1.61
2022-12-27T04:28:04.258Z,1.61
2022-12-27T04:28:37.207Z,1.61
2022-12-27T04:29:08.104Z,1.61
2022-12-27T04:29:40.896Z,1.61
2022-12-27T04:30:13.203Z,1.61
2022-12-27T04:30:45.199Z,1.61
2022-12-27T04:31:16.224Z,1.61
2022-12-27T04:31:49.095Z,1.61
2022-12-27T04:32:20.278Z,1.50
2022-12-27T04:32:52.935Z,1.50
2022-12-27T04:33:24.170Z,1.50
2022-12-27T04:33:56.989Z,1.50
2022-12-27T04:34:28.385Z,1.50
2022-12-27T04:35:01.395Z,1.50
2022-12-27T04:35:32.295Z,1.50
2022-12-27T04:36:06.338Z,1.50
2022-12-27T04:36:36.099Z,1.50
2022-12-27T04:37:08.961Z,1.50
2022-12-27T04:37:40.355Z,1.50
2022-12-27T04:38:13.225Z,1.50
2022-12-27T04:38:44.191Z,1.50
2022-12-27T04:39:16.862Z,1.50
2022-12-27T04:39:48.324Z,1.50
2022-12-27T04:40:21.537Z,1.50
2022-12-27T04:40:52.200Z,1.50
2022-12-27T04:41:25.092Z,1.50
2022-12-27T04:41:56.103Z,1.50
2022-12-27T04:42:29.140Z,1.50
2022-12-27T04:43:00.266Z,1.50
2022-12-27T04:43:33.186Z,1.50
2022-12-27T04:44:04.154Z,1.50
2022-12-27T04:44:37.176Z,1.50
2022-12-27T04:45:14.981Z,1.38
2022-12-27T04:45:41.237Z,1.38
2022-12-27T04:46:12.216Z,1.38
2022-12-27T04:46:45.117Z,1.38
2022-12-27T04:47:16.282Z,1.38
2022-12-27T04:47:49.210Z,1.38
2022-12-27T04:48:20.286Z,1.38
2022-12-27T04:48:53.172Z,1.38
2022-12-27T04:49:24.339Z,1.38
2022-12-27T04:49:56.983Z,1.38
2022-12-27T04:50:28.646Z,1.27
2022-12-27T04:51:01.135Z,1.27
2022-12-27T04:51:32.281Z,1.38
2022-12-27T04:52:05.144Z,1.38
2022-12-27T04:52:36.243Z,1.38
2022-12-27T04:53:09.040Z,1.38
2022-12-27T04:53:40.190Z,1.38
2022-12-27T04:54:13.112Z,1.38
2022-12-27T04:54:44.366Z,1.27
2022-12-27T04:55:22.709Z,1.27
2022-12-27T04:55:48.274Z,1.38
2022-12-27T04:56:20.249Z,1.38
2022-12-27T04:56:53.091Z,1.27
2022-12-27T04:57:24.439Z,1.27
2022-12-27T04:57:57.047Z,1.27
2022-12-27T04:58:28.380Z,1.27
2022-12-27T04:59:00.942Z,1.27
2022-12-27T04:59:32.231Z,1.27
2022-12-27T05:00:06.444Z,1.38
2022-12-27T05:00:36.470Z,1.38
2022-12-27T05:01:13.942Z,1.27
2022-12-27T05:01:40.348Z,1.27
2022-12-27T05:02:13.450Z,1.27
2022-12-27T05:02:44.509Z,1.27
2022-12-27T05:03:17.245Z,1.27
2022-12-27T05:03:48.426Z,1.27
2022-12-27T05:04:21.039Z,1.38
2022-12-27T05:04:52.134Z,1.38
2022-12-27T05:05:25.459Z,1.38
2022-12-27T05:05:56.126Z,1.38
2022-12-27T05:06:29.156Z,1.27
2022-12-27T05:07:00.181Z,1.27
2022-12-27T05:07:33.303Z,1.38
2022-12-27T05:08:04.213Z,1.38
2022-12-27T05:08:38.258Z,1.38
2022-12-27T05:09:08.273Z,1.38
2022-12-27T05:09:41.080Z,1.38
2022-12-27T05:10:12.541Z,1.38
2022-12-27T05:10:45.162Z,1.38
2022-12-27T05:11:16.393Z,1.38
2022-12-27T05:11:49.236Z,1.38
2022-12-27T05:12:20.280Z,1.38
2022-12-27T05:12:53.164Z,1.38
2022-12-27T05:13:24.149Z,1.38
2022-12-27T05:13:56.987Z,1.38
2022-12-27T05:14:28.297Z,1.38
2022-12-27T05:15:02.761Z,1.38
2022-12-27T05:15:32.284Z,1.38
2022-12-27T05:16:06.220Z,1.38
2022-12-27T05:16:36.214Z,1.38
2022-12-27T05:17:08.986Z,1.38
2022-12-27T05:17:40.233Z,1.38
2022-12-27T05:18:13.190Z,1.38
2022-12-27T05:18:44.270Z,1.38
2022-12-27T05:19:16.959Z,1.38
2022-12-27T05:19:48.223Z,1.38
2022-12-27T05:20:21.680Z,1.38
2022-12-27T05:20:52.108Z,1.38
2022-12-27T05:21:25.069Z,1.38
2022-12-27T05:21:56.294Z,1.38
2022-12-27T05:22:29.200Z,1.38
2022-12-27T05:23:00.177Z,1.38
2022-12-27T05:23:32.962Z,1.38
2022-12-27T05:24:05.774Z,1.38
2022-12-27T05:24:37.062Z,1.27
2022-12-27T05:25:08.541Z,1.27
2022-12-27T05:25:41.034Z,1.27
2022-12-27T05:26:12.271Z,1.27
2022-12-27T05:26:45.993Z,1.27
2022-12-27T05:27:16.198Z,1.27
2022-12-27T05:27:49.457Z,1.27
2022-12-27T05:28:19.893Z,1.27
2022-12-27T05:28:53.146Z,1.27
2022-12-27T05:29:24.251Z,1.27
2022-12-27T05:29:57.213Z,1.27
2022-12-27T05:30:29.634Z,1.27
2022-12-27T05:31:01.278Z,1.27
2022-12-27T05:31:32.547Z,1.27
2022-12-27T05:32:11.005Z,1.27
2022-12-27T05:32:36.186Z,1.27
2022-12-27T05:33:09.128Z,1.27
2022-12-27T05:33:40.364Z,1.27
2022-12-27T05:34:13.061Z,1.22
2022-12-27T05:34:44.307Z,1.22
2022-12-27T05:35:17.624Z,1.22
2022-12-27T05:35:48.274Z,1.22
2022-12-27T05:36:21.013Z,1.22
2022-12-27T05:36:52.363Z,1.22
2022-12-27T05:37:24.984Z,1.27
2022-12-27T05:37:56.162Z,1.27
2022-12-27T05:38:29.031Z,1.22
2022-12-27T05:39:00.319Z,1.22
2022-12-27T05:39:32.982Z,1.22
2022-12-27T05:40:04.625Z,1.22
2022-12-27T05:40:37.439Z,1.22
2022-12-27T05:41:08.187Z,1.22
2022-12-27T05:41:41.096Z,1.27
2022-12-27T05:42:12.273Z,1.27
2022-12-27T05:42:45.390Z,1.27
2022-12-27T05:43:16.246Z,1.27
2022-12-27T05:43:49.231Z,1.27
2022-12-27T05:44:20.295Z,1.27
2022-12-27T05:44:52.944Z,1.22
2022-12-27T05:45:25.419Z,1.22
2022-12-27T05:45:57.430Z,1.22
2022-12-27T05:46:28.241Z,1.22
2022-12-27T05:47:01.044Z,1.27
2022-12-27T05:47:32.199Z,1.27
2022-12-27T05:48:05.326Z,1.27
2022-12-27T05:48:36.122Z,1.27
2022-12-27T05:49:09.004Z,1.27
2022-12-27T05:49:40.214Z,1.27
2022-12-27T05:50:13.303Z,1.22
2022-12-27T05:50:44.266Z,1.22
2022-12-27T05:51:17.061Z,1.22
2022-12-27T05:51:48.309Z,1.22
2022-12-27T05:52:21.116Z,1.27
2022-12-27T05:52:52.216Z,1.27
2022-12-27T05:53:25.190Z,1.27
2022-12-27T05:53:56.110Z,1.27
2022-12-27T05:54:29.002Z,1.27
2022-12-27T05:55:00.660Z,1.27
2022-12-27T05:55:33.143Z,1.27
2022-12-27T05:56:04.119Z,1.27
2022-12-27T05:56:37.265Z,1.27
2022-12-27T05:57:08.303Z,1.27
2022-12-27T05:57:41.068Z,1.27
2022-12-27T05:58:12.264Z,1.27
2022-12-27T05:58:45.072Z,1.27
2022-12-27T05:59:16.370Z,1.27
2022-12-27T05:59:49.140Z,1.27
2022-12-27T06:00:22.026Z,1.27
2022-12-27T06:00:53.210Z,1.27
2022-12-27T06:01:24.111Z,1.27
2022-12-27T06:01:57.122Z,1.27
2022-12-27T06:02:28.372Z,1.27
2022-12-27T06:03:01.439Z,1.27
2022-12-27T06:03:32.374Z,1.27
2022-12-27T06:03:48.398Z,1.27
2022-12-27T06:04:20.110Z,1.22
2022-12-27T06:04:52.217Z,1.22
2022-12-27T06:05:24.678Z,1.22
2022-12-27T06:05:56.150Z,1.22
2022-12-27T06:06:28.728Z,1.27
2022-12-27T06:07:00.311Z,1.27
2022-12-27T06:07:33.162Z,1.22
2022-12-27T06:08:04.325Z,1.22
2022-12-27T06:08:20.365Z,1.27
2022-12-27T06:08:52.208Z,1.27
2022-12-27T06:09:24.208Z,1.22
2022-12-27T06:09:57.198Z,1.22
2022-12-27T06:10:28.599Z,1.27
2022-12-27T06:11:01.269Z,1.27
2022-12-27T06:11:32.319Z,1.22
2022-12-27T06:12:05.132Z,1.22
2022-12-27T06:12:36.215Z,1.22
2022-12-27T06:13:09.136Z,1.22
2022-12-27T06:13:40.385Z,1.22
2022-12-27T06:14:12.887Z,1.22
2022-12-27T06:14:44.238Z,1.22
2022-12-27T06:15:18.326Z,1.22
2022-12-27T06:15:48.553Z,1.22
2022-12-27T06:16:21.041Z,1.22
2022-12-27T06:16:52.441Z,1.22
2022-12-27T06:17:25.171Z,1.22
2022-12-27T06:17:56.186Z,1.22
2022-12-27T06:18:30.069Z,1.22
2022-12-27T06:19:00.390Z,1.22
2022-12-27T06:19:33.160Z,1.22
2022-12-27T06:20:04.433Z,1.22
2022-12-27T06:20:20.396Z,1.22
2022-12-27T06:20:52.482Z,1.22
2022-12-27T06:21:24.229Z,1.22
2022-12-27T06:21:56.307Z,1.22
2022-12-27T06:22:28.161Z,1.22
2022-12-27T06:23:02.113Z,1.22
2022-12-27T06:23:32.277Z,1.27
2022-12-27T06:24:05.195Z,1.27
2022-12-27T06:24:36.197Z,1.27
2022-12-27T06:25:13.974Z,1.27
2022-12-27T06:25:40.330Z,1.27
2022-12-27T06:26:13.159Z,1.27
2022-12-27T06:26:44.242Z,1.27
2022-12-27T06:27:18.231Z,1.27
2022-12-27T06:27:48.510Z,1.27
2022-12-27T06:28:21.122Z,1.27
2022-12-27T06:28:52.200Z,1.27
2022-12-27T06:29:25.106Z,1.27
2022-12-27T06:29:56.354Z,1.27
2022-12-27T06:30:35.828Z,1.27
2022-12-27T06:31:00.386Z,1.27
2022-12-27T06:31:33.207Z,1.27
2022-12-27T06:32:04.252Z,1.27
2022-12-27T06:32:37.360Z,1.27
2022-12-27T06:33:08.341Z,1.27
2022-12-27T06:33:41.184Z,1.27
2022-12-27T06:34:12.018Z,1.27
2022-12-27T06:34:46.208Z,1.27
2022-12-27T06:35:16.642Z,1.38
2022-12-27T06:35:48.997Z,1.38
2022-12-27T06:36:20.240Z,1.38
2022-12-27T06:36:53.183Z,1.38
2022-12-27T06:37:24.236Z,1.38
2022-12-27T06:37:57.289Z,1.38
2022-12-27T06:38:28.220Z,1.38
2022-12-27T06:39:01.259Z,1.38
2022-12-27T06:39:32.236Z,1.38
2022-12-27T06:39:48.380Z,1.38
2022-12-27T06:40:20.602Z,1.38
2022-12-27T06:40:52.177Z,1.38
2022-12-27T06:41:24.242Z,1.38
2022-12-27T06:41:56.368Z,1.38
2022-12-27T06:42:28.171Z,1.38
2022-12-27T06:43:00.284Z,1.38
2022-12-27T06:43:32.286Z,1.38
2022-12-27T06:44:04.197Z,1.38
2022-12-27T06:44:37.290Z,1.38
2022-12-27T06:45:09.413Z,1.38
2022-12-27T06:45:41.123Z,1.38
2022-12-27T06:46:17.090Z,1.38
2022-12-27T06:46:45.119Z,1.38
2022-12-27T06:47:16.288Z,1.38
2022-12-27T06:47:49.131Z,1.38
2022-12-27T06:48:20.363Z,1.38
2022-12-27T06:48:54.060Z,1.38
2022-12-27T06:49:24.392Z,1.38
2022-12-27T06:49:57.103Z,1.38
2022-12-27T06:50:28.776Z,1.38
2022-12-27T06:51:01.589Z,1.38
2022-12-27T06:51:32.243Z,1.38
2022-12-27T06:52:05.397Z,1.27
2022-12-27T06:52:36.407Z,1.27
2022-12-27T06:53:09.288Z,1.27
2022-12-27T06:53:40.169Z,1.27
2022-12-27T06:54:13.120Z,1.27
2022-12-27T06:54:44.392Z,1.27
2022-12-27T06:55:17.342Z,1.27
2022-12-27T06:55:48.327Z,1.27
2022-12-27T06:56:21.327Z,1.27
2022-12-27T06:56:52.414Z,1.27
2022-12-27T06:57:25.145Z,1.27
2022-12-27T06:57:56.275Z,1.27
2022-12-27T06:58:29.327Z,1.27
2022-12-27T06:59:00.170Z,1.27
2022-12-27T06:59:33.037Z,1.27
2022-12-27T07:00:05.853Z,1.27
2022-12-27T07:00:37.616Z,1.27
2022-12-27T07:01:08.293Z,1.27
2022-12-27T07:01:41.442Z,1.27
2022-12-27T07:02:12.540Z,1.27
2022-12-27T07:02:45.307Z,1.27
2022-12-27T07:03:16.349Z,1.27
2022-12-27T07:03:49.356Z,1.27